sensor_id;sensor_type;location;lat;lon;timestamp;temperature;humidity
69418;DHT22;56610;48.872;2.400;2023-03-21T00:00:35;16.70;99.90
69418;DHT22;56610;48.872;2.400;2023-03-21T00:03:01;16.60;99.90
69418;DHT22;56610;48.872;2.400;2023-03-21T00:05:26;16.40;99.90
69418;DHT22;56610;48.872;2.400;2023-03-21T00:07:52;16.40;99.90
69418;DHT22;56610;48.872;2.400;2023-03-21T00:10:17;16.50;99.90
69418;DHT22;56610;48.872;2.400;2023-03-21T00:12:43;16.40;99.90
69418;DHT22;56610;48.872;2.400;2023-03-21T00:15:10;16.40;99.90
69418;DHT22;56610;48.872;2.400;2023-03-21T00:17:37;16.50;99.90
69418;DHT22;56610;48.872;2.400;2023-03-21T00:20:04;16.60;99.90
69418;DHT22;56610;48.872;2.400;2023-03-21T00:22:33;16.60;99.90
69418;DHT22;56610;48.872;2.400;2023-03-21T00:24:59;16.60;99.90
69418;DHT22;56610;48.872;2.400;2023-03-21T00:27:25;16.70;99.90
69418;DHT22;56610;48.872;2.400;2023-03-21T00:29:50;16.70;99.90
69418;DHT22;56610;48.872;2.400;2023-03-21T00:32:17;16.50;99.90
69418;DHT22;56610;48.872;2.400;2023-03-21T00:34:43;16.50;99.90
69418;DHT22;56610;48.872;2.400;2023-03-21T00:37:10;16.40;99.90
69418;DHT22;56610;48.872;2.400;2023-03-21T00:39:38;16.10;99.90
69418;DHT22;56610;48.872;2.400;2023-03-21T00:42:04;16.20;99.90
69418;DHT22;56610;48.872;2.400;2023-03-21T00:44:30;16.10;99.90
69418;DHT22;56610;48.872;2.400;2023-03-21T00:47:01;16.00;99.90
69418;DHT22;56610;48.872;2.400;2023-03-21T00:49:27;15.90;99.90
69418;DHT22;56610;48.872;2.400;2023-03-21T00:52:00;15.90;99.90
69418;DHT22;56610;48.872;2.400;2023-03-21T00:54:26;15.90;99.90
69418;DHT22;56610;48.872;2.400;2023-03-21T00:56:52;15.90;99.90
69418;DHT22;56610;48.872;2.400;2023-03-21T00:59:18;15.80;99.90
69418;DHT22;56610;48.872;2.400;2023-03-21T01:01:44;15.80;99.90
69418;DHT22;56610;48.872;2.400;2023-03-21T01:04:11;15.80;99.90
69418;DHT22;56610;48.872;2.400;2023-03-21T01:06:40;15.90;99.90
69418;DHT22;56610;48.872;2.400;2023-03-21T01:09:07;15.90;99.90
69418;DHT22;56610;48.872;2.400;2023-03-21T01:11:35;15.80;99.90
69418;DHT22;56610;48.872;2.400;2023-03-21T01:14:01;15.40;99.90
69418;DHT22;56610;48.872;2.400;2023-03-21T01:16:26;15.20;99.90
69418;DHT22;56610;48.872;2.400;2023-03-21T01:18:52;15.00;99.90
69418;DHT22;56610;48.872;2.400;2023-03-21T01:21:18;15.00;99.90
69418;DHT22;56610;48.872;2.400;2023-03-21T01:23:44;15.00;99.90
69418;DHT22;56610;48.872;2.400;2023-03-21T01:26:10;15.20;99.90
69418;DHT22;56610;48.872;2.400;2023-03-21T01:28:37;15.50;99.90
69418;DHT22;56610;48.872;2.400;2023-03-21T01:31:04;15.60;99.90
69418;DHT22;56610;48.872;2.400;2023-03-21T01:36:19;15.70;99.90
69418;DHT22;56610;48.872;2.400;2023-03-21T01:38:46;15.70;99.90
69418;DHT22;56610;48.872;2.400;2023-03-21T01:41:25;15.60;99.90
69418;DHT22;56610;48.872;2.400;2023-03-21T01:43:52;15.50;99.90
69418;DHT22;56610;48.872;2.400;2023-03-21T01:51:40;15.60;99.90
69418;DHT22;56610;48.872;2.400;2023-03-21T01:54:10;15.60;99.90
69418;DHT22;56610;48.872;2.400;2023-03-21T01:56:39;15.50;99.90
69418;DHT22;56610;48.872;2.400;2023-03-21T01:59:11;15.40;99.90
69418;DHT22;56610;48.872;2.400;2023-03-21T02:01:38;15.40;99.90
69418;DHT22;56610;48.872;2.400;2023-03-21T02:04:06;15.50;99.90
69418;DHT22;56610;48.872;2.400;2023-03-21T02:06:45;15.60;99.90
69418;DHT22;56610;48.872;2.400;2023-03-21T02:09:17;15.70;99.90
69418;DHT22;56610;48.872;2.400;2023-03-21T02:11:45;15.90;99.90
69418;DHT22;56610;48.872;2.400;2023-03-21T02:14:14;16.00;99.90
69418;DHT22;56610;48.872;2.400;2023-03-21T02:16:48;16.10;99.90
69418;DHT22;56610;48.872;2.400;2023-03-21T02:22:38;16.10;99.90
69418;DHT22;56610;48.872;2.400;2023-03-21T02:25:12;16.00;99.90
69418;DHT22;56610;48.872;2.400;2023-03-21T02:28:21;16.00;99.90
69418;DHT22;56610;48.872;2.400;2023-03-21T02:41:47;15.80;99.90
69418;DHT22;56610;48.872;2.400;2023-03-21T02:46:56;15.30;99.90
69418;DHT22;56610;48.872;2.400;2023-03-21T02:49:30;15.60;99.90
69418;DHT22;56610;48.872;2.400;2023-03-21T02:51:58;15.80;99.90
69418;DHT22;56610;48.872;2.400;2023-03-21T02:54:26;15.80;99.90
69418;DHT22;56610;48.872;2.400;2023-03-21T02:56:53;15.90;99.90
69418;DHT22;56610;48.872;2.400;2023-03-21T02:59:22;15.90;99.90
69418;DHT22;56610;48.872;2.400;2023-03-21T03:01:50;15.80;99.90
69418;DHT22;56610;48.872;2.400;2023-03-21T03:04:27;15.80;99.90
69418;DHT22;56610;48.872;2.400;2023-03-21T03:12:56;15.90;99.90
69418;DHT22;56610;48.872;2.400;2023-03-21T03:18:28;15.80;99.90
69418;DHT22;56610;48.872;2.400;2023-03-21T03:21:06;15.90;99.90
69418;DHT22;56610;48.872;2.400;2023-03-21T03:29:13;15.90;99.90
69418;DHT22;56610;48.872;2.400;2023-03-21T03:34:35;15.60;99.90
69418;DHT22;56610;48.872;2.400;2023-03-21T03:37:07;15.50;99.90
69418;DHT22;56610;48.872;2.400;2023-03-21T03:39:40;15.50;99.90
69418;DHT22;56610;48.872;2.400;2023-03-21T03:42:13;15.50;99.90
69418;DHT22;56610;48.872;2.400;2023-03-21T03:44:40;15.50;99.90
69418;DHT22;56610;48.872;2.400;2023-03-21T03:47:11;15.70;99.90
69418;DHT22;56610;48.872;2.400;2023-03-21T03:49:49;15.70;99.90
69418;DHT22;56610;48.872;2.400;2023-03-21T03:52:20;15.70;99.90
69418;DHT22;56610;48.872;2.400;2023-03-21T03:54:49;15.90;99.90
69418;DHT22;56610;48.872;2.400;2023-03-21T03:57:17;15.90;99.90
69418;DHT22;56610;48.872;2.400;2023-03-21T03:59:44;16.00;99.90
69418;DHT22;56610;48.872;2.400;2023-03-21T04:02:10;16.00;99.90
69418;DHT22;56610;48.872;2.400;2023-03-21T04:04:37;16.10;99.90
69418;DHT22;56610;48.872;2.400;2023-03-21T04:07:03;16.10;99.90
69418;DHT22;56610;48.872;2.400;2023-03-21T04:09:29;16.00;99.90
69418;DHT22;56610;48.872;2.400;2023-03-21T04:11:55;15.70;99.90
69418;DHT22;56610;48.872;2.400;2023-03-21T04:14:22;15.70;99.90
69418;DHT22;56610;48.872;2.400;2023-03-21T04:16:47;15.50;99.90
69418;DHT22;56610;48.872;2.400;2023-03-21T04:19:13;15.50;99.90
69418;DHT22;56610;48.872;2.400;2023-03-21T04:21:41;15.20;99.90
69418;DHT22;56610;48.872;2.400;2023-03-21T04:24:08;14.90;99.90
69418;DHT22;56610;48.872;2.400;2023-03-21T04:26:34;14.90;99.90
69418;DHT22;56610;48.872;2.400;2023-03-21T04:29:01;14.80;99.90
69418;DHT22;56610;48.872;2.400;2023-03-21T04:31:29;14.80;99.90
69418;DHT22;56610;48.872;2.400;2023-03-21T04:34:03;14.70;99.90
69418;DHT22;56610;48.872;2.400;2023-03-21T04:36:34;14.90;99.90
69418;DHT22;56610;48.872;2.400;2023-03-21T04:39:04;15.00;99.90
69418;DHT22;56610;48.872;2.400;2023-03-21T04:41:34;15.20;99.90
69418;DHT22;56610;48.872;2.400;2023-03-21T04:44:01;15.30;99.90
69418;DHT22;56610;48.872;2.400;2023-03-21T04:46:27;15.20;99.90
69418;DHT22;56610;48.872;2.400;2023-03-21T04:48:52;15.00;99.90
69418;DHT22;56610;48.872;2.400;2023-03-21T04:51:18;14.90;99.90
69418;DHT22;56610;48.872;2.400;2023-03-21T04:53:43;15.00;99.90
69418;DHT22;56610;48.872;2.400;2023-03-21T04:56:11;14.90;99.90
69418;DHT22;56610;48.872;2.400;2023-03-21T04:58:37;14.90;99.90
69418;DHT22;56610;48.872;2.400;2023-03-21T05:01:05;14.60;99.90
69418;DHT22;56610;48.872;2.400;2023-03-21T05:03:31;14.60;99.90
69418;DHT22;56610;48.872;2.400;2023-03-21T05:05:59;14.60;99.90
69418;DHT22;56610;48.872;2.400;2023-03-21T05:08:25;14.50;99.90
69418;DHT22;56610;48.872;2.400;2023-03-21T05:10:51;14.60;99.90
69418;DHT22;56610;48.872;2.400;2023-03-21T05:13:17;14.60;99.90
69418;DHT22;56610;48.872;2.400;2023-03-21T05:15:42;14.80;99.90
69418;DHT22;56610;48.872;2.400;2023-03-21T05:18:08;15.00;99.90
69418;DHT22;56610;48.872;2.400;2023-03-21T05:20:40;15.30;99.90
69418;DHT22;56610;48.872;2.400;2023-03-21T05:23:09;15.40;99.90
69418;DHT22;56610;48.872;2.400;2023-03-21T05:25:37;15.40;99.90
69418;DHT22;56610;48.872;2.400;2023-03-21T05:28:04;15.50;99.90
69418;DHT22;56610;48.872;2.400;2023-03-21T05:30:31;15.40;99.90
69418;DHT22;56610;48.872;2.400;2023-03-21T05:32:56;15.30;99.90
69418;DHT22;56610;48.872;2.400;2023-03-21T05:35:22;15.20;99.90
69418;DHT22;56610;48.872;2.400;2023-03-21T05:37:48;15.20;99.90
69418;DHT22;56610;48.872;2.400;2023-03-21T05:40:13;15.10;99.90
69418;DHT22;56610;48.872;2.400;2023-03-21T05:42:39;14.90;99.90
69418;DHT22;56610;48.872;2.400;2023-03-21T05:45:05;14.80;99.90
69418;DHT22;56610;48.872;2.400;2023-03-21T05:47:31;15.00;99.90
69418;DHT22;56610;48.872;2.400;2023-03-21T05:49:57;15.00;99.90
69418;DHT22;56610;48.872;2.400;2023-03-21T05:52:23;14.90;99.90
69418;DHT22;56610;48.872;2.400;2023-03-21T05:54:48;14.90;99.90
69418;DHT22;56610;48.872;2.400;2023-03-21T05:57:14;14.70;99.90
69418;DHT22;56610;48.872;2.400;2023-03-21T05:59:40;14.70;99.90
69418;DHT22;56610;48.872;2.400;2023-03-21T06:02:06;14.70;99.90
69418;DHT22;56610;48.872;2.400;2023-03-21T06:04:32;14.80;99.90
69418;DHT22;56610;48.872;2.400;2023-03-21T06:06:57;14.90;99.90
69418;DHT22;56610;48.872;2.400;2023-03-21T06:09:23;14.80;99.90
69418;DHT22;56610;48.872;2.400;2023-03-21T06:11:51;14.90;99.90
69418;DHT22;56610;48.872;2.400;2023-03-21T06:14:18;15.10;99.90
69418;DHT22;56610;48.872;2.400;2023-03-21T06:16:44;15.30;99.90
69418;DHT22;56610;48.872;2.400;2023-03-21T06:19:10;15.30;99.90
69418;DHT22;56610;48.872;2.400;2023-03-21T06:21:36;15.00;99.90
69418;DHT22;56610;48.872;2.400;2023-03-21T06:24:01;15.10;99.90
69418;DHT22;56610;48.872;2.400;2023-03-21T06:26:27;15.20;99.90
69418;DHT22;56610;48.872;2.400;2023-03-21T06:28:53;15.20;99.90
69418;DHT22;56610;48.872;2.400;2023-03-21T06:31:19;15.30;99.90
69418;DHT22;56610;48.872;2.400;2023-03-21T06:33:47;15.40;99.90
69418;DHT22;56610;48.872;2.400;2023-03-21T06:36:13;15.50;99.90
69418;DHT22;56610;48.872;2.400;2023-03-21T06:38:39;15.50;99.90
69418;DHT22;56610;48.872;2.400;2023-03-21T06:41:05;15.50;99.90
69418;DHT22;56610;48.872;2.400;2023-03-21T06:43:32;15.50;99.90
69418;DHT22;56610;48.872;2.400;2023-03-21T06:45:58;15.40;99.90
69418;DHT22;56610;48.872;2.400;2023-03-21T06:48:24;15.30;99.90
69418;DHT22;56610;48.872;2.400;2023-03-21T06:50:51;15.10;99.90
69418;DHT22;56610;48.872;2.400;2023-03-21T06:53:18;14.80;99.90
69418;DHT22;56610;48.872;2.400;2023-03-21T06:55:52;14.70;99.90
69418;DHT22;56610;48.872;2.400;2023-03-21T06:58:18;14.50;99.90
69418;DHT22;56610;48.872;2.400;2023-03-21T07:00:44;14.50;99.90
69418;DHT22;56610;48.872;2.400;2023-03-21T07:03:10;14.30;99.90
69418;DHT22;56610;48.872;2.400;2023-03-21T07:05:36;14.60;99.90
69418;DHT22;56610;48.872;2.400;2023-03-21T07:08:03;14.70;99.90
69418;DHT22;56610;48.872;2.400;2023-03-21T07:10:29;14.80;99.90
69418;DHT22;56610;48.872;2.400;2023-03-21T07:12:55;14.70;99.90
69418;DHT22;56610;48.872;2.400;2023-03-21T07:15:22;14.60;99.90
69418;DHT22;56610;48.872;2.400;2023-03-21T07:17:48;14.70;99.90
69418;DHT22;56610;48.872;2.400;2023-03-21T07:20:13;14.80;99.90
69418;DHT22;56610;48.872;2.400;2023-03-21T07:22:39;14.70;99.90
69418;DHT22;56610;48.872;2.400;2023-03-21T07:25:06;14.50;99.90
69418;DHT22;56610;48.872;2.400;2023-03-21T07:27:32;14.40;99.90
69418;DHT22;56610;48.872;2.400;2023-03-21T07:29:58;14.30;99.90
69418;DHT22;56610;48.872;2.400;2023-03-21T07:32:23;14.60;99.90
69418;DHT22;56610;48.872;2.400;2023-03-21T07:34:49;14.60;99.90
69418;DHT22;56610;48.872;2.400;2023-03-21T07:37:14;14.70;99.90
69418;DHT22;56610;48.872;2.400;2023-03-21T07:39:40;14.60;99.90
69418;DHT22;56610;48.872;2.400;2023-03-21T07:42:07;14.30;99.90
69418;DHT22;56610;48.872;2.400;2023-03-21T07:44:33;14.20;99.90
69418;DHT22;56610;48.872;2.400;2023-03-21T07:46:58;14.20;99.90
69418;DHT22;56610;48.872;2.400;2023-03-21T07:49:24;14.40;99.90
69418;DHT22;56610;48.872;2.400;2023-03-21T07:51:50;14.40;99.90
69418;DHT22;56610;48.872;2.400;2023-03-21T07:54:16;14.30;99.90
69418;DHT22;56610;48.872;2.400;2023-03-21T07:56:45;14.30;99.90
69418;DHT22;56610;48.872;2.400;2023-03-21T07:59:10;14.30;99.90
69418;DHT22;56610;48.872;2.400;2023-03-21T08:01:36;14.30;99.90
69418;DHT22;56610;48.872;2.400;2023-03-21T08:04:02;13.90;99.90
69418;DHT22;56610;48.872;2.400;2023-03-21T08:06:27;13.80;99.90
69418;DHT22;56610;48.872;2.400;2023-03-21T08:08:53;13.80;99.90
69418;DHT22;56610;48.872;2.400;2023-03-21T08:11:19;13.60;99.90
69418;DHT22;56610;48.872;2.400;2023-03-21T08:13:46;13.60;99.90
69418;DHT22;56610;48.872;2.400;2023-03-21T08:16:12;13.60;99.90
69418;DHT22;56610;48.872;2.400;2023-03-21T08:18:37;13.80;99.90
69418;DHT22;56610;48.872;2.400;2023-03-21T08:21:03;13.90;99.90
69418;DHT22;56610;48.872;2.400;2023-03-21T08:23:29;13.90;99.90
69418;DHT22;56610;48.872;2.400;2023-03-21T08:25:55;13.90;99.90
69418;DHT22;56610;48.872;2.400;2023-03-21T08:28:21;13.90;99.90
69418;DHT22;56610;48.872;2.400;2023-03-21T08:30:48;13.90;99.90
69418;DHT22;56610;48.872;2.400;2023-03-21T08:33:13;14.10;99.90
69418;DHT22;56610;48.872;2.400;2023-03-21T08:35:39;14.10;99.90
69418;DHT22;56610;48.872;2.400;2023-03-21T08:38:05;14.30;99.90
69418;DHT22;56610;48.872;2.400;2023-03-21T08:40:31;14.20;99.90
69418;DHT22;56610;48.872;2.400;2023-03-21T08:42:57;14.20;99.90
69418;DHT22;56610;48.872;2.400;2023-03-21T08:45:23;14.50;99.90
69418;DHT22;56610;48.872;2.400;2023-03-21T08:47:50;14.70;99.90
69418;DHT22;56610;48.872;2.400;2023-03-21T08:50:18;15.00;99.90
69418;DHT22;56610;48.872;2.400;2023-03-21T08:52:44;15.20;99.90
69418;DHT22;56610;48.872;2.400;2023-03-21T08:55:10;15.50;99.90
69418;DHT22;56610;48.872;2.400;2023-03-21T08:57:37;15.60;99.90
69418;DHT22;56610;48.872;2.400;2023-03-21T09:00:04;15.50;99.90
69418;DHT22;56610;48.872;2.400;2023-03-21T09:02:39;15.60;99.90
69418;DHT22;56610;48.872;2.400;2023-03-21T09:05:05;15.40;99.90
69418;DHT22;56610;48.872;2.400;2023-03-21T09:07:32;15.50;99.90
69418;DHT22;56610;48.872;2.400;2023-03-21T09:09:59;15.30;99.90
69418;DHT22;56610;48.872;2.400;2023-03-21T09:12:25;15.20;99.90
69418;DHT22;56610;48.872;2.400;2023-03-21T09:14:50;15.30;99.90
69418;DHT22;56610;48.872;2.400;2023-03-21T09:17:17;15.40;99.90
69418;DHT22;56610;48.872;2.400;2023-03-21T09:19:43;15.20;99.90
69418;DHT22;56610;48.872;2.400;2023-03-21T09:22:11;15.20;99.90
69418;DHT22;56610;48.872;2.400;2023-03-21T09:24:42;15.30;99.90
69418;DHT22;56610;48.872;2.400;2023-03-21T09:27:10;15.20;99.90
69418;DHT22;56610;48.872;2.400;2023-03-21T09:29:36;15.10;99.90
69418;DHT22;56610;48.872;2.400;2023-03-21T09:32:02;15.00;99.90
69418;DHT22;56610;48.872;2.400;2023-03-21T09:34:28;15.20;99.90
69418;DHT22;56610;48.872;2.400;2023-03-21T09:36:54;15.10;99.90
69418;DHT22;56610;48.872;2.400;2023-03-21T09:39:21;15.20;99.90
69418;DHT22;56610;48.872;2.400;2023-03-21T09:42:05;15.20;99.90
69418;DHT22;56610;48.872;2.400;2023-03-21T09:47:25;15.40;99.90
69418;DHT22;56610;48.872;2.400;2023-03-21T09:55:46;15.40;99.90
69418;DHT22;56610;48.872;2.400;2023-03-21T09:58:19;15.40;99.90
69418;DHT22;56610;48.872;2.400;2023-03-21T10:00:51;15.50;99.90
69418;DHT22;56610;48.872;2.400;2023-03-21T10:03:22;15.70;99.90
69418;DHT22;56610;48.872;2.400;2023-03-21T10:05:50;15.60;99.90
69418;DHT22;56610;48.872;2.400;2023-03-21T10:08:22;15.60;99.90
69418;DHT22;56610;48.872;2.400;2023-03-21T10:10:55;15.60;99.90
69418;DHT22;56610;48.872;2.400;2023-03-21T10:13:28;15.60;99.90
69418;DHT22;56610;48.872;2.400;2023-03-21T10:15:57;15.50;99.90
69418;DHT22;56610;48.872;2.400;2023-03-21T10:18:28;15.60;99.90
69418;DHT22;56610;48.872;2.400;2023-03-21T10:20:54;15.70;99.90
69418;DHT22;56610;48.872;2.400;2023-03-21T10:23:23;15.80;99.90
69418;DHT22;56610;48.872;2.400;2023-03-21T10:26:00;15.70;99.90
69418;DHT22;56610;48.872;2.400;2023-03-21T10:28:30;15.70;99.90
69418;DHT22;56610;48.872;2.400;2023-03-21T10:31:01;15.60;99.90
69418;DHT22;56610;48.872;2.400;2023-03-21T10:33:33;15.50;99.90
69418;DHT22;56610;48.872;2.400;2023-03-21T10:36:03;15.50;99.90
69418;DHT22;56610;48.872;2.400;2023-03-21T10:38:30;15.60;99.90
69418;DHT22;56610;48.872;2.400;2023-03-21T10:40:55;15.80;99.90
69418;DHT22;56610;48.872;2.400;2023-03-21T10:45:54;15.60;99.90
69418;DHT22;56610;48.872;2.400;2023-03-21T10:48:22;15.70;99.90
69418;DHT22;56610;48.872;2.400;2023-03-21T10:50:50;15.90;99.90
69418;DHT22;56610;48.872;2.400;2023-03-21T10:53:20;16.00;99.90
69418;DHT22;56610;48.872;2.400;2023-03-21T10:55:55;15.90;99.90
69418;DHT22;56610;48.872;2.400;2023-03-21T10:58:26;15.80;99.90
69418;DHT22;56610;48.872;2.400;2023-03-21T11:01:00;15.80;99.90
69418;DHT22;56610;48.872;2.400;2023-03-21T11:03:30;15.80;99.90
69418;DHT22;56610;48.872;2.400;2023-03-21T11:06:22;15.90;99.90
69418;DHT22;56610;48.872;2.400;2023-03-21T11:08:49;15.80;99.90
69418;DHT22;56610;48.872;2.400;2023-03-21T11:11:48;15.90;99.90
69418;DHT22;56610;48.872;2.400;2023-03-21T11:14:30;15.90;99.90
69418;DHT22;56610;48.872;2.400;2023-03-21T11:16:57;16.00;99.90
69418;DHT22;56610;48.872;2.400;2023-03-21T11:19:32;15.90;99.90
69418;DHT22;56610;48.872;2.400;2023-03-21T11:22:05;15.90;99.90
69418;DHT22;56610;48.872;2.400;2023-03-21T11:24:32;16.00;99.90
69418;DHT22;56610;48.872;2.400;2023-03-21T11:26:58;16.20;99.90
69418;DHT22;56610;48.872;2.400;2023-03-21T11:29:35;16.50;99.90
69418;DHT22;56610;48.872;2.400;2023-03-21T11:32:32;16.40;99.90
69418;DHT22;56610;48.872;2.400;2023-03-21T11:37:41;16.40;99.90
69418;DHT22;56610;48.872;2.400;2023-03-21T11:45:34;16.80;99.90
69418;DHT22;56610;48.872;2.400;2023-03-21T11:48:12;16.70;99.90
69418;DHT22;56610;48.872;2.400;2023-03-21T11:50:44;16.60;99.90
69418;DHT22;56610;48.872;2.400;2023-03-21T11:53:36;16.50;99.90
69418;DHT22;56610;48.872;2.400;2023-03-21T11:59:16;16.40;99.90
69418;DHT22;56610;48.872;2.400;2023-03-21T12:09:34;16.40;99.90
69418;DHT22;56610;48.872;2.400;2023-03-21T12:12:14;16.50;99.90
69418;DHT22;56610;48.872;2.400;2023-03-21T12:25:53;16.40;99.90
69418;DHT22;56610;48.872;2.400;2023-03-21T12:36:45;16.10;99.90
69418;DHT22;56610;48.872;2.400;2023-03-21T12:39:23;16.20;99.90
69418;DHT22;56610;48.872;2.400;2023-03-21T12:44:31;16.40;99.90
69418;DHT22;56610;48.872;2.400;2023-03-21T12:47:01;16.40;99.90
69418;DHT22;56610;48.872;2.400;2023-03-21T12:49:38;16.30;99.90
69418;DHT22;56610;48.872;2.400;2023-03-21T12:52:13;16.40;99.90
69418;DHT22;56610;48.872;2.400;2023-03-21T12:54:46;16.40;99.90
69418;DHT22;56610;48.872;2.400;2023-03-21T12:59:53;16.50;99.90
69418;DHT22;56610;48.872;2.400;2023-03-21T13:02:30;16.70;99.90
69418;DHT22;56610;48.872;2.400;2023-03-21T13:05:19;16.80;99.90
69418;DHT22;56610;48.872;2.400;2023-03-21T13:07:50;16.90;99.90
69418;DHT22;56610;48.872;2.400;2023-03-21T13:10:20;17.20;99.90
69418;DHT22;56610;48.872;2.400;2023-03-21T13:23:37;17.20;99.90
69418;DHT22;56610;48.872;2.400;2023-03-21T13:26:08;17.10;99.90
69418;DHT22;56610;48.872;2.400;2023-03-21T13:28:38;16.90;99.90
69418;DHT22;56610;48.872;2.400;2023-03-21T13:31:20;17.00;99.90
69418;DHT22;56610;48.872;2.400;2023-03-21T13:33:50;16.90;99.90
69418;DHT22;56610;48.872;2.400;2023-03-21T13:36:24;17.00;99.90
69418;DHT22;56610;48.872;2.400;2023-03-21T13:38:53;17.00;99.90
69418;DHT22;56610;48.872;2.400;2023-03-21T13:49:12;16.80;99.90
69418;DHT22;56610;48.872;2.400;2023-03-21T13:51:45;16.70;99.90
69418;DHT22;56610;48.872;2.400;2023-03-21T13:59:12;17.10;99.90
69418;DHT22;56610;48.872;2.400;2023-03-21T14:01:40;17.00;99.90
69418;DHT22;56610;48.872;2.400;2023-03-21T14:04:18;17.20;99.90
69418;DHT22;56610;48.872;2.400;2023-03-21T14:06:54;17.30;99.90
69418;DHT22;56610;48.872;2.400;2023-03-21T14:09:35;16.90;99.90
69418;DHT22;56610;48.872;2.400;2023-03-21T14:12:04;16.90;99.90
69418;DHT22;56610;48.872;2.400;2023-03-21T14:14:56;17.00;99.90
69418;DHT22;56610;48.872;2.400;2023-03-21T14:17:31;17.00;99.90
69418;DHT22;56610;48.872;2.400;2023-03-21T14:20:18;17.00;99.90
69418;DHT22;56610;48.872;2.400;2023-03-21T14:22:48;17.10;99.90
69418;DHT22;56610;48.872;2.400;2023-03-21T14:25:17;16.90;99.90
69418;DHT22;56610;48.872;2.400;2023-03-21T14:27:54;16.60;99.90
69418;DHT22;56610;48.872;2.400;2023-03-21T14:30:41;16.70;99.90
69418;DHT22;56610;48.872;2.400;2023-03-21T14:35:58;16.90;99.90
69418;DHT22;56610;48.872;2.400;2023-03-21T14:38:28;16.90;99.90
69418;DHT22;56610;48.872;2.400;2023-03-21T14:40:56;16.80;99.90
69418;DHT22;56610;48.872;2.400;2023-03-21T14:43:23;16.90;99.90
69418;DHT22;56610;48.872;2.400;2023-03-21T14:45:52;16.90;99.90
69418;DHT22;56610;48.872;2.400;2023-03-21T14:48:19;17.20;99.90
69418;DHT22;56610;48.872;2.400;2023-03-21T14:50:45;17.30;99.90
69418;DHT22;56610;48.872;2.400;2023-03-21T14:53:27;17.50;99.90
69418;DHT22;56610;48.872;2.400;2023-03-21T14:56:01;17.80;99.90
69418;DHT22;56610;48.872;2.400;2023-03-21T14:58:29;18.10;99.90
69418;DHT22;56610;48.872;2.400;2023-03-21T15:01:02;18.10;99.90
69418;DHT22;56610;48.872;2.400;2023-03-21T15:03:29;18.10;99.90
69418;DHT22;56610;48.872;2.400;2023-03-21T15:05:56;18.20;99.90
69418;DHT22;56610;48.872;2.400;2023-03-21T15:08:24;18.20;99.90
69418;DHT22;56610;48.872;2.400;2023-03-21T15:13:24;18.30;99.90
69418;DHT22;56610;48.872;2.400;2023-03-21T15:15:50;18.40;99.90
69418;DHT22;56610;48.872;2.400;2023-03-21T15:18:26;18.70;99.90
69418;DHT22;56610;48.872;2.400;2023-03-21T15:20:52;18.70;99.90
69418;DHT22;56610;48.872;2.400;2023-03-21T15:23:39;18.40;99.90
69418;DHT22;56610;48.872;2.400;2023-03-21T15:26:06;18.20;99.90
69418;DHT22;56610;48.872;2.400;2023-03-21T15:28:33;18.00;99.90
69418;DHT22;56610;48.872;2.400;2023-03-21T15:30:59;17.70;99.90
69418;DHT22;56610;48.872;2.400;2023-03-21T15:33:25;17.70;99.90
69418;DHT22;56610;48.872;2.400;2023-03-21T15:35:56;17.70;99.90
69418;DHT22;56610;48.872;2.400;2023-03-21T15:38:31;17.60;99.90
69418;DHT22;56610;48.872;2.400;2023-03-21T15:44:09;17.50;99.90
69418;DHT22;56610;48.872;2.400;2023-03-21T15:46:47;17.40;99.90
69418;DHT22;56610;48.872;2.400;2023-03-21T15:54:24;17.30;99.90
69418;DHT22;56610;48.872;2.400;2023-03-21T15:56:56;17.20;99.90
69418;DHT22;56610;48.872;2.400;2023-03-21T15:59:26;17.00;99.90
69418;DHT22;56610;48.872;2.400;2023-03-21T16:01:54;17.00;99.90
69418;DHT22;56610;48.872;2.400;2023-03-21T16:04:19;16.90;99.90
69418;DHT22;56610;48.872;2.400;2023-03-21T16:06:56;16.90;99.90
69418;DHT22;56610;48.872;2.400;2023-03-21T16:09:22;16.90;99.90
69418;DHT22;56610;48.872;2.400;2023-03-21T16:14:19;16.80;99.90
69418;DHT22;56610;48.872;2.400;2023-03-21T16:16:46;16.90;99.90
69418;DHT22;56610;48.872;2.400;2023-03-21T16:19:12;16.90;99.90
69418;DHT22;56610;48.872;2.400;2023-03-21T16:21:38;16.80;99.90
69418;DHT22;56610;48.872;2.400;2023-03-21T16:24:05;16.90;99.90
69418;DHT22;56610;48.872;2.400;2023-03-21T16:26:32;16.90;99.90
69418;DHT22;56610;48.872;2.400;2023-03-21T16:29:00;16.90;99.90
69418;DHT22;56610;48.872;2.400;2023-03-21T16:31:28;17.00;99.90
69418;DHT22;56610;48.872;2.400;2023-03-21T16:33:54;17.00;99.90
69418;DHT22;56610;48.872;2.400;2023-03-21T16:36:29;17.00;99.90
69418;DHT22;56610;48.872;2.400;2023-03-21T16:38:56;17.00;99.90
69418;DHT22;56610;48.872;2.400;2023-03-21T16:41:24;17.10;99.90
69418;DHT22;56610;48.872;2.400;2023-03-21T16:43:50;17.10;99.90
69418;DHT22;56610;48.872;2.400;2023-03-21T16:46:21;17.20;99.90
69418;DHT22;56610;48.872;2.400;2023-03-21T16:48:52;17.20;99.90
69418;DHT22;56610;48.872;2.400;2023-03-21T16:51:21;17.20;99.90
69418;DHT22;56610;48.872;2.400;2023-03-21T16:53:48;17.10;99.90
69418;DHT22;56610;48.872;2.400;2023-03-21T16:56:36;17.20;99.90
69418;DHT22;56610;48.872;2.400;2023-03-21T16:59:03;17.30;99.90
69418;DHT22;56610;48.872;2.400;2023-03-21T17:01:30;17.40;99.90
69418;DHT22;56610;48.872;2.400;2023-03-21T17:03:57;17.20;99.90
69418;DHT22;56610;48.872;2.400;2023-03-21T17:06:25;17.10;99.90
69418;DHT22;56610;48.872;2.400;2023-03-21T17:08:53;16.90;99.90
69418;DHT22;56610;48.872;2.400;2023-03-21T17:11:20;16.90;99.90
69418;DHT22;56610;48.872;2.400;2023-03-21T17:13:50;16.90;99.90
69418;DHT22;56610;48.872;2.400;2023-03-21T17:16:21;16.90;99.90
69418;DHT22;56610;48.872;2.400;2023-03-21T17:18:47;16.80;99.90
69418;DHT22;56610;48.872;2.400;2023-03-21T17:21:16;16.70;99.90
69418;DHT22;56610;48.872;2.400;2023-03-21T17:23:43;16.70;99.90
69418;DHT22;56610;48.872;2.400;2023-03-21T17:26:10;16.60;99.90
69418;DHT22;56610;48.872;2.400;2023-03-21T17:28:37;16.70;99.90
69418;DHT22;56610;48.872;2.400;2023-03-21T17:31:04;16.70;99.90
69418;DHT22;56610;48.872;2.400;2023-03-21T17:33:30;16.80;99.90
69418;DHT22;56610;48.872;2.400;2023-03-21T17:35:56;16.80;99.90
69418;DHT22;56610;48.872;2.400;2023-03-21T17:38:21;16.80;99.90
69418;DHT22;56610;48.872;2.400;2023-03-21T17:40:47;16.90;99.90
69418;DHT22;56610;48.872;2.400;2023-03-21T17:43:18;16.90;99.90
69418;DHT22;56610;48.872;2.400;2023-03-21T17:45:44;16.80;99.90
69418;DHT22;56610;48.872;2.400;2023-03-21T17:48:10;16.80;99.90
69418;DHT22;56610;48.872;2.400;2023-03-21T17:50:36;16.90;99.90
69418;DHT22;56610;48.872;2.400;2023-03-21T17:53:03;16.80;99.90
69418;DHT22;56610;48.872;2.400;2023-03-21T17:55:29;16.90;99.90
69418;DHT22;56610;48.872;2.400;2023-03-21T17:57:55;16.90;99.90